sensor_id;sensor_type;location;lat;lon;timestamp;temperature;humidity
51567;DHT22;37657;53.182;5.638;2023-04-24T00:01:47;10.70;99.90
51567;DHT22;37657;53.182;5.638;2023-04-24T00:04:13;10.60;99.90
51567;DHT22;37657;53.182;5.638;2023-04-24T00:06:41;10.50;99.90
51567;DHT22;37657;53.182;5.638;2023-04-24T00:09:08;11.30;99.90
51567;DHT22;37657;53.182;5.638;2023-04-24T00:11:35;10.50;99.90
51567;DHT22;37657;53.182;5.638;2023-04-24T00:14:01;10.80;99.90
51567;DHT22;37657;53.182;5.638;2023-04-24T00:16:26;10.70;99.90
51567;DHT22;37657;53.182;5.638;2023-04-24T00:18:52;11.20;99.90
51567;DHT22;37657;53.182;5.638;2023-04-24T00:21:21;11.30;99.90
51567;DHT22;37657;53.182;5.638;2023-04-24T00:23:47;11.10;99.90
51567;DHT22;37657;53.182;5.638;2023-04-24T00:26:13;11.00;99.90
51567;DHT22;37657;53.182;5.638;2023-04-24T00:28:39;10.80;99.90
51567;DHT22;37657;53.182;5.638;2023-04-24T00:31:04;11.20;99.90
51567;DHT22;37657;53.182;5.638;2023-04-24T00:33:30;11.20;99.90
51567;DHT22;37657;53.182;5.638;2023-04-24T00:35:56;10.80;99.90
51567;DHT22;37657;53.182;5.638;2023-04-24T00:38:21;11.20;99.90
51567;DHT22;37657;53.182;5.638;2023-04-24T00:40:48;11.20;99.90
51567;DHT22;37657;53.182;5.638;2023-04-24T00:43:15;10.60;99.90
51567;DHT22;37657;53.182;5.638;2023-04-24T00:45:41;10.70;99.90
51567;DHT22;37657;53.182;5.638;2023-04-24T00:48:07;11.30;99.90
51567;DHT22;37657;53.182;5.638;2023-04-24T00:50:33;10.50;99.90
51567;DHT22;37657;53.182;5.638;2023-04-24T00:53:01;10.60;99.90
51567;DHT22;37657;53.182;5.638;2023-04-24T00:55:26;10.60;99.90
51567;DHT22;37657;53.182;5.638;2023-04-24T00:57:52;11.20;99.90
51567;DHT22;37657;53.182;5.638;2023-04-24T01:00:17;10.50;99.90
51567;DHT22;37657;53.182;5.638;2023-04-24T01:02:44;11.30;99.90
51567;DHT22;37657;53.182;5.638;2023-04-24T01:05:11;11.20;99.90
51567;DHT22;37657;53.182;5.638;2023-04-24T01:07:39;10.70;99.90
51567;DHT22;37657;53.182;5.638;2023-04-24T01:10:07;10.70;99.90
51567;DHT22;37657;53.182;5.638;2023-04-24T01:12:33;10.80;99.90
51567;DHT22;37657;53.182;5.638;2023-04-24T01:14:59;10.60;99.90
51567;DHT22;37657;53.182;5.638;2023-04-24T01:17:24;11.20;99.90
51567;DHT22;37657;53.182;5.638;2023-04-24T01:19:50;11.30;99.90
51567;DHT22;37657;53.182;5.638;2023-04-24T01:22:19;10.50;99.90
51567;DHT22;37657;53.182;5.638;2023-04-24T01:24:46;10.80;99.90
51567;DHT22;37657;53.182;5.638;2023-04-24T01:27:11;10.80;99.90
51567;DHT22;37657;53.182;5.638;2023-04-24T01:29:37;10.90;99.90
51567;DHT22;37657;53.182;5.638;2023-04-24T01:32:04;11.20;99.90
51567;DHT22;37657;53.182;5.638;2023-04-24T01:34:30;10.70;99.90
51567;DHT22;37657;53.182;5.638;2023-04-24T01:36:56;10.70;99.90
51567;DHT22;37657;53.182;5.638;2023-04-24T01:39:22;11.00;99.90
51567;DHT22;37657;53.182;5.638;2023-04-24T01:41:54;10.90;99.90
51567;DHT22;37657;53.182;5.638;2023-04-24T01:44:21;11.10;99.90
51567;DHT22;37657;53.182;5.638;2023-04-24T01:46:46;10.70;99.90
51567;DHT22;37657;53.182;5.638;2023-04-24T01:49:12;11.20;99.90
51567;DHT22;37657;53.182;5.638;2023-04-24T01:51:38;10.40;99.90
51567;DHT22;37657;53.182;5.638;2023-04-24T01:54:03;10.30;99.90
51567;DHT22;37657;53.182;5.638;2023-04-24T01:56:29;10.40;99.90
51567;DHT22;37657;53.182;5.638;2023-04-24T01:58:56;10.60;99.90
51567;DHT22;37657;53.182;5.638;2023-04-24T02:01:23;10.80;99.90
51567;DHT22;37657;53.182;5.638;2023-04-24T02:03:49;10.80;99.90
51567;DHT22;37657;53.182;5.638;2023-04-24T02:06:15;10.70;99.90
51567;DHT22;37657;53.182;5.638;2023-04-24T02:08:41;11.00;99.90
51567;DHT22;37657;53.182;5.638;2023-04-24T02:11:06;10.20;99.90
51567;DHT22;37657;53.182;5.638;2023-04-24T02:13:33;10.40;99.90
51567;DHT22;37657;53.182;5.638;2023-04-24T02:15:59;10.90;99.90
51567;DHT22;37657;53.182;5.638;2023-04-24T02:18:24;10.30;99.90
51567;DHT22;37657;53.182;5.638;2023-04-24T02:20:50;10.20;99.90
51567;DHT22;37657;53.182;5.638;2023-04-24T02:23:15;10.90;99.90
51567;DHT22;37657;53.182;5.638;2023-04-24T02:25:41;10.10;99.90
51567;DHT22;37657;53.182;5.638;2023-04-24T02:28:07;10.20;99.90
51567;DHT22;37657;53.182;5.638;2023-04-24T02:30:32;10.60;99.90
51567;DHT22;37657;53.182;5.638;2023-04-24T02:32:58;10.30;99.90
51567;DHT22;37657;53.182;5.638;2023-04-24T02:35:23;10.90;99.90
51567;DHT22;37657;53.182;5.638;2023-04-24T02:37:49;10.20;99.90
51567;DHT22;37657;53.182;5.638;2023-04-24T02:40:14;10.70;99.90
51567;DHT22;37657;53.182;5.638;2023-04-24T02:42:40;10.80;99.90
51567;DHT22;37657;53.182;5.638;2023-04-24T02:45:06;10.40;99.90
51567;DHT22;37657;53.182;5.638;2023-04-24T02:47:32;10.20;99.90
51567;DHT22;37657;53.182;5.638;2023-04-24T02:49:57;10.30;99.90
51567;DHT22;37657;53.182;5.638;2023-04-24T02:52:23;10.20;99.90
51567;DHT22;37657;53.182;5.638;2023-04-24T02:54:48;10.30;99.90
51567;DHT22;37657;53.182;5.638;2023-04-24T02:57:14;11.00;99.90
51567;DHT22;37657;53.182;5.638;2023-04-24T02:59:40;10.70;99.90
51567;DHT22;37657;53.182;5.638;2023-04-24T03:02:05;10.20;99.90
51567;DHT22;37657;53.182;5.638;2023-04-24T03:04:31;11.10;99.90
51567;DHT22;37657;53.182;5.638;2023-04-24T03:06:57;10.80;99.90
51567;DHT22;37657;53.182;5.638;2023-04-24T03:09:23;10.30;99.90
51567;DHT22;37657;53.182;5.638;2023-04-24T03:11:49;10.30;99.90
51567;DHT22;37657;53.182;5.638;2023-04-24T03:14:15;10.30;99.90
51567;DHT22;37657;53.182;5.638;2023-04-24T03:16:40;10.10;99.90
51567;DHT22;37657;53.182;5.638;2023-04-24T03:19:06;10.20;99.90
51567;DHT22;37657;53.182;5.638;2023-04-24T03:21:32;10.20;99.90
51567;DHT22;37657;53.182;5.638;2023-04-24T03:23:57;10.30;99.90
51567;DHT22;37657;53.182;5.638;2023-04-24T03:26:23;10.20;99.90
51567;DHT22;37657;53.182;5.638;2023-04-24T03:28:48;10.20;99.90
51567;DHT22;37657;53.182;5.638;2023-04-24T03:31:14;10.70;99.90
51567;DHT22;37657;53.182;5.638;2023-04-24T03:33:40;10.60;99.90
51567;DHT22;37657;53.182;5.638;2023-04-24T03:36:06;10.30;99.90
51567;DHT22;37657;53.182;5.638;2023-04-24T03:38:32;10.30;99.90
51567;DHT22;37657;53.182;5.638;2023-04-24T03:40:57;10.60;99.90
51567;DHT22;37657;53.182;5.638;2023-04-24T03:43:23;10.70;99.90
51567;DHT22;37657;53.182;5.638;2023-04-24T03:45:49;10.20;99.90
51567;DHT22;37657;53.182;5.638;2023-04-24T03:48:14;10.60;99.90
51567;DHT22;37657;53.182;5.638;2023-04-24T03:50:40;10.30;99.90
51567;DHT22;37657;53.182;5.638;2023-04-24T03:53:05;10.10;99.90
51567;DHT22;37657;53.182;5.638;2023-04-24T03:55:31;10.80;99.90
51567;DHT22;37657;53.182;5.638;2023-04-24T03:57:56;10.10;99.90
51567;DHT22;37657;53.182;5.638;2023-04-24T04:00:22;10.80;99.90
51567;DHT22;37657;53.182;5.638;2023-04-24T04:02:48;10.80;99.90
51567;DHT22;37657;53.182;5.638;2023-04-24T04:05:13;10.70;99.90
51567;DHT22;37657;53.182;5.638;2023-04-24T04:07:39;10.70;99.90
51567;DHT22;37657;53.182;5.638;2023-04-24T04:10:05;10.10;99.90
51567;DHT22;37657;53.182;5.638;2023-04-24T04:12:32;10.60;99.90
51567;DHT22;37657;53.182;5.638;2023-04-24T04:14:58;10.20;99.90
51567;DHT22;37657;53.182;5.638;2023-04-24T04:17:23;10.20;99.90
51567;DHT22;37657;53.182;5.638;2023-04-24T04:19:49;10.20;99.90
51567;DHT22;37657;53.182;5.638;2023-04-24T04:22:14;10.30;99.90
51567;DHT22;37657;53.182;5.638;2023-04-24T04:24:40;10.50;99.90
51567;DHT22;37657;53.182;5.638;2023-04-24T04:27:06;10.00;99.90
51567;DHT22;37657;53.182;5.638;2023-04-24T04:29:32;10.50;99.90
51567;DHT22;37657;53.182;5.638;2023-04-24T04:31:58;10.50;99.90
51567;DHT22;37657;53.182;5.638;2023-04-24T04:34:23;10.00;99.90
51567;DHT22;37657;53.182;5.638;2023-04-24T04:36:49;10.60;99.90
51567;DHT22;37657;53.182;5.638;2023-04-24T04:39:15;10.60;99.90
51567;DHT22;37657;53.182;5.638;2023-04-24T04:41:42;10.20;99.90
51567;DHT22;37657;53.182;5.638;2023-04-24T04:44:07;10.50;99.90
51567;DHT22;37657;53.182;5.638;2023-04-24T04:46:34;10.60;99.90
51567;DHT22;37657;53.182;5.638;2023-04-24T04:49:00;10.40;99.90
51567;DHT22;37657;53.182;5.638;2023-04-24T04:51:26;10.10;99.90
51567;DHT22;37657;53.182;5.638;2023-04-24T04:53:52;10.20;99.90
51567;DHT22;37657;53.182;5.638;2023-04-24T04:56:18;10.00;99.90
51567;DHT22;37657;53.182;5.638;2023-04-24T04:58:44;10.30;99.90
51567;DHT22;37657;53.182;5.638;2023-04-24T05:01:09;10.40;99.90
51567;DHT22;37657;53.182;5.638;2023-04-24T05:03:35;10.30;99.90
51567;DHT22;37657;53.182;5.638;2023-04-24T05:06:01;10.00;99.90
51567;DHT22;37657;53.182;5.638;2023-04-24T05:08:27;10.50;99.90
51567;DHT22;37657;53.182;5.638;2023-04-24T05:10:54;10.40;99.90
51567;DHT22;37657;53.182;5.638;2023-04-24T05:13:20;10.40;99.90
51567;DHT22;37657;53.182;5.638;2023-04-24T05:15:45;10.40;99.90
51567;DHT22;37657;53.182;5.638;2023-04-24T05:18:11;10.50;99.90
51567;DHT22;37657;53.182;5.638;2023-04-24T05:20:36;10.30;99.90
51567;DHT22;37657;53.182;5.638;2023-04-24T05:23:02;10.20;99.90
51567;DHT22;37657;53.182;5.638;2023-04-24T05:25:28;10.10;99.90
51567;DHT22;37657;53.182;5.638;2023-04-24T05:27:53;10.10;99.90
51567;DHT22;37657;53.182;5.638;2023-04-24T05:30:19;10.40;99.90
51567;DHT22;37657;53.182;5.638;2023-04-24T05:32:45;10.10;99.90
51567;DHT22;37657;53.182;5.638;2023-04-24T05:35:11;10.30;99.90
51567;DHT22;37657;53.182;5.638;2023-04-24T05:37:37;10.30;99.90
51567;DHT22;37657;53.182;5.638;2023-04-24T05:40:03;10.30;99.90
51567;DHT22;37657;53.182;5.638;2023-04-24T05:42:31;10.20;99.90
51567;DHT22;37657;53.182;5.638;2023-04-24T05:44:56;10.30;99.90
51567;DHT22;37657;53.182;5.638;2023-04-24T05:47:22;10.30;99.90
51567;DHT22;37657;53.182;5.638;2023-04-24T05:49:48;10.40;99.90
51567;DHT22;37657;53.182;5.638;2023-04-24T05:52:13;10.40;99.90
51567;DHT22;37657;53.182;5.638;2023-04-24T05:54:39;9.90;99.90
51567;DHT22;37657;53.182;5.638;2023-04-24T05:57:05;10.30;99.90
51567;DHT22;37657;53.182;5.638;2023-04-24T05:59:35;10.20;99.90
51567;DHT22;37657;53.182;5.638;2023-04-24T06:02:00;10.20;99.90
51567;DHT22;37657;53.182;5.638;2023-04-24T06:04:26;10.00;99.90
51567;DHT22;37657;53.182;5.638;2023-04-24T06:06:51;10.30;99.90
51567;DHT22;37657;53.182;5.638;2023-04-24T06:09:22;10.20;99.90
51567;DHT22;37657;53.182;5.638;2023-04-24T06:11:48;10.10;99.90
51567;DHT22;37657;53.182;5.638;2023-04-24T06:14:14;9.90;99.90
51567;DHT22;37657;53.182;5.638;2023-04-24T06:16:41;9.90;99.90
51567;DHT22;37657;53.182;5.638;2023-04-24T06:19:07;10.20;99.90
51567;DHT22;37657;53.182;5.638;2023-04-24T06:21:33;10.10;99.90
51567;DHT22;37657;53.182;5.638;2023-04-24T06:23:58;10.10;99.90
51567;DHT22;37657;53.182;5.638;2023-04-24T06:26:24;9.70;99.90
51567;DHT22;37657;53.182;5.638;2023-04-24T06:28:52;9.70;99.90
51567;DHT22;37657;53.182;5.638;2023-04-24T06:31:21;9.50;99.90
51567;DHT22;37657;53.182;5.638;2023-04-24T06:33:48;9.50;99.90
51567;DHT22;37657;53.182;5.638;2023-04-24T06:36:14;9.70;99.90
51567;DHT22;37657;53.182;5.638;2023-04-24T06:38:41;9.50;99.90
51567;DHT22;37657;53.182;5.638;2023-04-24T06:41:10;9.60;99.90
51567;DHT22;37657;53.182;5.638;2023-04-24T06:43:35;9.50;99.90
51567;DHT22;37657;53.182;5.638;2023-04-24T06:46:01;9.60;99.90
51567;DHT22;37657;53.182;5.638;2023-04-24T06:48:28;9.60;99.90
51567;DHT22;37657;53.182;5.638;2023-04-24T06:50:54;9.70;99.90
51567;DHT22;37657;53.182;5.638;2023-04-24T06:53:20;9.70;99.90
51567;DHT22;37657;53.182;5.638;2023-04-24T06:55:46;9.70;99.90
51567;DHT22;37657;53.182;5.638;2023-04-24T06:58:12;9.70;99.90
51567;DHT22;37657;53.182;5.638;2023-04-24T07:00:38;9.70;99.90
51567;DHT22;37657;53.182;5.638;2023-04-24T07:03:04;9.70;99.90
51567;DHT22;37657;53.182;5.638;2023-04-24T07:05:32;9.70;99.90
51567;DHT22;37657;53.182;5.638;2023-04-24T07:08:00;9.70;99.90
51567;DHT22;37657;53.182;5.638;2023-04-24T07:10:35;9.60;99.90
51567;DHT22;37657;53.182;5.638;2023-04-24T07:13:01;9.60;99.90
51567;DHT22;37657;53.182;5.638;2023-04-24T07:15:26;9.60;99.90
51567;DHT22;37657;53.182;5.638;2023-04-24T07:17:52;9.60;99.90
51567;DHT22;37657;53.182;5.638;2023-04-24T07:20:18;9.40;99.90
51567;DHT22;37657;53.182;5.638;2023-04-24T07:22:43;9.60;99.90
51567;DHT22;37657;53.182;5.638;2023-04-24T07:25:09;9.50;99.90
51567;DHT22;37657;53.182;5.638;2023-04-24T07:27:35;9.70;99.90
51567;DHT22;37657;53.182;5.638;2023-04-24T07:30:02;9.60;99.90
51567;DHT22;37657;53.182;5.638;2023-04-24T07:32:29;9.60;99.90
51567;DHT22;37657;53.182;5.638;2023-04-24T07:34:54;9.80;99.90
51567;DHT22;37657;53.182;5.638;2023-04-24T07:37:20;9.70;99.90
51567;DHT22;37657;53.182;5.638;2023-04-24T07:39:46;9.70;99.90
51567;DHT22;37657;53.182;5.638;2023-04-24T07:42:12;9.60;99.90
51567;DHT22;37657;53.182;5.638;2023-04-24T07:44:37;9.70;99.90
51567;DHT22;37657;53.182;5.638;2023-04-24T07:47:03;9.80;99.90
51567;DHT22;37657;53.182;5.638;2023-04-24T07:49:28;9.90;99.90
51567;DHT22;37657;53.182;5.638;2023-04-24T07:51:54;9.90;99.90
51567;DHT22;37657;53.182;5.638;2023-04-24T07:54:19;9.90;99.90
51567;DHT22;37657;53.182;5.638;2023-04-24T07:56:45;9.70;99.90
51567;DHT22;37657;53.182;5.638;2023-04-24T07:59:11;9.70;99.90
51567;DHT22;37657;53.182;5.638;2023-04-24T08:01:39;9.70;99.90
51567;DHT22;37657;53.182;5.638;2023-04-24T08:04:05;9.90;99.90
51567;DHT22;37657;53.182;5.638;2023-04-24T08:06:31;9.80;99.90
51567;DHT22;37657;53.182;5.638;2023-04-24T08:08:57;9.80;99.90
51567;DHT22;37657;53.182;5.638;2023-04-24T08:11:24;9.80;99.90
51567;DHT22;37657;53.182;5.638;2023-04-24T08:13:49;9.90;99.90
51567;DHT22;37657;53.182;5.638;2023-04-24T08:16:15;10.00;99.90
51567;DHT22;37657;53.182;5.638;2023-04-24T08:18:41;9.90;99.90
51567;DHT22;37657;53.182;5.638;2023-04-24T08:21:06;10.00;99.90
51567;DHT22;37657;53.182;5.638;2023-04-24T08:23:32;10.10;99.90
51567;DHT22;37657;53.182;5.638;2023-04-24T08:25:57;10.10;99.90
51567;DHT22;37657;53.182;5.638;2023-04-24T08:28:23;10.20;99.90
51567;DHT22;37657;53.182;5.638;2023-04-24T08:30:49;10.40;99.90
51567;DHT22;37657;53.182;5.638;2023-04-24T08:33:22;10.40;99.90
51567;DHT22;37657;53.182;5.638;2023-04-24T08:35:48;10.50;99.90
51567;DHT22;37657;53.182;5.638;2023-04-24T08:38:14;10.50;99.90
51567;DHT22;37657;53.182;5.638;2023-04-24T08:40:40;10.60;99.90
51567;DHT22;37657;53.182;5.638;2023-04-24T08:43:06;10.60;99.90
51567;DHT22;37657;53.182;5.638;2023-04-24T08:45:32;10.70;99.90
51567;DHT22;37657;53.182;5.638;2023-04-24T08:47:59;10.80;99.90
51567;DHT22;37657;53.182;5.638;2023-04-24T08:50:25;10.90;99.90
51567;DHT22;37657;53.182;5.638;2023-04-24T08:52:51;10.90;99.90
51567;DHT22;37657;53.182;5.638;2023-04-24T08:55:19;10.90;99.90
51567;DHT22;37657;53.182;5.638;2023-04-24T08:57:50;10.90;99.90
51567;DHT22;37657;53.182;5.638;2023-04-24T09:00:17;10.80;99.90
51567;DHT22;37657;53.182;5.638;2023-04-24T09:02:43;10.80;99.90
51567;DHT22;37657;53.182;5.638;2023-04-24T09:05:10;10.70;99.90
51567;DHT22;37657;53.182;5.638;2023-04-24T09:07:36;10.70;99.90
51567;DHT22;37657;53.182;5.638;2023-04-24T09:10:04;10.60;99.90
51567;DHT22;37657;53.182;5.638;2023-04-24T09:12:30;10.70;99.90
51567;DHT22;37657;53.182;5.638;2023-04-24T09:14:57;10.70;99.90
51567;DHT22;37657;53.182;5.638;2023-04-24T09:17:24;10.60;99.90
51567;DHT22;37657;53.182;5.638;2023-04-24T09:19:52;10.60;99.90
51567;DHT22;37657;53.182;5.638;2023-04-24T09:22:18;10.50;99.90
51567;DHT22;37657;53.182;5.638;2023-04-24T09:24:45;10.30;99.90
51567;DHT22;37657;53.182;5.638;2023-04-24T09:27:11;10.40;99.90
51567;DHT22;37657;53.182;5.638;2023-04-24T09:29:38;10.40;99.90
51567;DHT22;37657;53.182;5.638;2023-04-24T09:32:23;10.40;99.90
51567;DHT22;37657;53.182;5.638;2023-04-24T09:35:14;10.50;99.90
51567;DHT22;37657;53.182;5.638;2023-04-24T09:37:45;10.40;99.90
51567;DHT22;37657;53.182;5.638;2023-04-24T09:42:37;10.30;99.90
51567;DHT22;37657;53.182;5.638;2023-04-24T09:45:04;10.30;99.90
51567;DHT22;37657;53.182;5.638;2023-04-24T09:47:36;10.20;99.90
51567;DHT22;37657;53.182;5.638;2023-04-24T09:50:12;10.20;99.90
51567;DHT22;37657;53.182;5.638;2023-04-24T09:52:46;10.30;99.90
51567;DHT22;37657;53.182;5.638;2023-04-24T09:55:19;10.40;99.90
51567;DHT22;37657;53.182;5.638;2023-04-24T09:57:49;10.30;99.90
51567;DHT22;37657;53.182;5.638;2023-04-24T10:00:29;10.40;99.90
51567;DHT22;37657;53.182;5.638;2023-04-24T10:02:56;10.60;99.90
51567;DHT22;37657;53.182;5.638;2023-04-24T10:05:33;10.70;99.90
51567;DHT22;37657;53.182;5.638;2023-04-24T10:08:03;10.70;99.90
51567;DHT22;37657;53.182;5.638;2023-04-24T10:10:31;10.60;99.90
51567;DHT22;37657;53.182;5.638;2023-04-24T10:12:56;10.60;99.90
51567;DHT22;37657;53.182;5.638;2023-04-24T10:15:22;10.60;99.90
51567;DHT22;37657;53.182;5.638;2023-04-24T10:17:49;10.60;99.90
51567;DHT22;37657;53.182;5.638;2023-04-24T10:20:24;10.70;99.90
51567;DHT22;37657;53.182;5.638;2023-04-24T10:22:51;10.70;99.90
51567;DHT22;37657;53.182;5.638;2023-04-24T10:25:25;10.80;99.90
51567;DHT22;37657;53.182;5.638;2023-04-24T10:27:52;10.80;99.90
51567;DHT22;37657;53.182;5.638;2023-04-24T10:30:19;10.80;99.90
51567;DHT22;37657;53.182;5.638;2023-04-24T10:32:45;10.60;99.90
51567;DHT22;37657;53.182;5.638;2023-04-24T10:35:15;10.60;99.90
51567;DHT22;37657;53.182;5.638;2023-04-24T10:37:45;10.60;99.90
51567;DHT22;37657;53.182;5.638;2023-04-24T10:40:16;10.40;99.90
51567;DHT22;37657;53.182;5.638;2023-04-24T10:42:42;10.30;99.90
51567;DHT22;37657;53.182;5.638;2023-04-24T10:45:19;10.10;99.90
51567;DHT22;37657;53.182;5.638;2023-04-24T10:48:04;9.90;99.90
51567;DHT22;37657;53.182;5.638;2023-04-24T10:50:53;9.80;99.90
51567;DHT22;37657;53.182;5.638;2023-04-24T10:53:27;9.90;99.90
51567;DHT22;37657;53.182;5.638;2023-04-24T10:56:06;9.80;99.90
51567;DHT22;37657;53.182;5.638;2023-04-24T10:58:41;9.80;99.90
51567;DHT22;37657;53.182;5.638;2023-04-24T11:01:08;9.80;99.90
51567;DHT22;37657;53.182;5.638;2023-04-24T11:03:35;9.90;99.90
51567;DHT22;37657;53.182;5.638;2023-04-24T11:06:06;9.90;99.90
51567;DHT22;37657;53.182;5.638;2023-04-24T11:08:44;9.80;99.90
51567;DHT22;37657;53.182;5.638;2023-04-24T11:11:12;10.00;99.90
51567;DHT22;37657;53.182;5.638;2023-04-24T11:16:37;10.20;99.90
51567;DHT22;37657;53.182;5.638;2023-04-24T11:19:09;10.40;99.90
51567;DHT22;37657;53.182;5.638;2023-04-24T11:21:41;10.60;99.90
51567;DHT22;37657;53.182;5.638;2023-04-24T11:29:22;10.60;99.90
51567;DHT22;37657;53.182;5.638;2023-04-24T11:31:48;10.60;99.90
51567;DHT22;37657;53.182;5.638;2023-04-24T11:34:17;10.50;99.90
51567;DHT22;37657;53.182;5.638;2023-04-24T11:36:44;10.50;99.90
51567;DHT22;37657;53.182;5.638;2023-04-24T11:39:10;10.50;99.90
51567;DHT22;37657;53.182;5.638;2023-04-24T11:41:37;10.60;99.90
51567;DHT22;37657;53.182;5.638;2023-04-24T11:44:05;10.60;99.90
51567;DHT22;37657;53.182;5.638;2023-04-24T11:46:31;10.70;99.90
51567;DHT22;37657;53.182;5.638;2023-04-24T11:48:58;10.80;99.90
51567;DHT22;37657;53.182;5.638;2023-04-24T11:51:25;10.80;99.90
51567;DHT22;37657;53.182;5.638;2023-04-24T11:53:52;10.90;99.90
51567;DHT22;37657;53.182;5.638;2023-04-24T11:56:18;11.10;99.90
51567;DHT22;37657;53.182;5.638;2023-04-24T11:58:45;11.10;99.90
51567;DHT22;37657;53.182;5.638;2023-04-24T12:01:11;11.00;99.90
51567;DHT22;37657;53.182;5.638;2023-04-24T12:03:36;11.00;99.90
51567;DHT22;37657;53.182;5.638;2023-04-24T12:06:06;10.80;99.90
51567;DHT22;37657;53.182;5.638;2023-04-24T12:08:33;10.90;99.90
51567;DHT22;37657;53.182;5.638;2023-04-24T12:11:04;11.00;99.90
51567;DHT22;37657;53.182;5.638;2023-04-24T12:13:30;11.20;99.90
51567;DHT22;37657;53.182;5.638;2023-04-24T12:16:02;11.30;99.90
51567;DHT22;37657;53.182;5.638;2023-04-24T12:18:28;11.20;99.90
51567;DHT22;37657;53.182;5.638;2023-04-24T12:20:53;11.20;99.90
51567;DHT22;37657;53.182;5.638;2023-04-24T12:23:35;11.10;99.90
51567;DHT22;37657;53.182;5.638;2023-04-24T12:26:04;10.90;99.90
51567;DHT22;37657;53.182;5.638;2023-04-24T12:28:37;11.00;99.90
51567;DHT22;37657;53.182;5.638;2023-04-24T12:31:03;11.20;99.90
51567;DHT22;37657;53.182;5.638;2023-04-24T12:33:33;11.20;99.90
51567;DHT22;37657;53.182;5.638;2023-04-24T12:35:59;11.10;99.90
51567;DHT22;37657;53.182;5.638;2023-04-24T12:38:27;11.10;99.90
51567;DHT22;37657;53.182;5.638;2023-04-24T12:41:11;11.10;99.90
51567;DHT22;37657;53.182;5.638;2023-04-24T12:43:37;11.00;99.90
51567;DHT22;37657;53.182;5.638;2023-04-24T12:46:03;10.90;99.90
51567;DHT22;37657;53.182;5.638;2023-04-24T12:48:30;10.70;99.90
51567;DHT22;37657;53.182;5.638;2023-04-24T12:51:00;10.70;99.90
51567;DHT22;37657;53.182;5.638;2023-04-24T12:53:28;10.60;99.90
51567;DHT22;37657;53.182;5.638;2023-04-24T12:55:55;10.70;99.90
51567;DHT22;37657;53.182;5.638;2023-04-24T12:58:21;10.60;99.90
51567;DHT22;37657;53.182;5.638;2023-04-24T13:00:47;10.50;99.90
51567;DHT22;37657;53.182;5.638;2023-04-24T13:03:13;10.40;99.90
51567;DHT22;37657;53.182;5.638;2023-04-24T13:05:39;10.40;99.90
51567;DHT22;37657;53.182;5.638;2023-04-24T13:08:05;10.40;99.90
51567;DHT22;37657;53.182;5.638;2023-04-24T13:10:31;10.40;99.90
51567;DHT22;37657;53.182;5.638;2023-04-24T13:12:57;10.40;99.90
51567;DHT22;37657;53.182;5.638;2023-04-24T13:15:22;10.40;99.90
51567;DHT22;37657;53.182;5.638;2023-04-24T13:17:48;10.50;99.90
51567;DHT22;37657;53.182;5.638;2023-04-24T13:20:13;10.40;99.90
51567;DHT22;37657;53.182;5.638;2023-04-24T13:22:39;10.10;99.90
51567;DHT22;37657;53.182;5.638;2023-04-24T13:25:05;10.10;99.90
51567;DHT22;37657;53.182;5.638;2023-04-24T13:27:31;10.00;99.90
51567;DHT22;37657;53.182;5.638;2023-04-24T13:29:57;10.00;99.90
51567;DHT22;37657;53.182;5.638;2023-04-24T13:32:22;10.20;99.90
51567;DHT22;37657;53.182;5.638;2023-04-24T13:34:48;10.30;99.90
51567;DHT22;37657;53.182;5.638;2023-04-24T13:37:13;10.40;99.90
51567;DHT22;37657;53.182;5.638;2023-04-24T13:39:39;10.50;99.90
51567;DHT22;37657;53.182;5.638;2023-04-24T13:42:06;10.50;99.90
51567;DHT22;37657;53.182;5.638;2023-04-24T13:44:32;10.20;99.90
51567;DHT22;37657;53.182;5.638;2023-04-24T13:46:58;10.30;99.90
51567;DHT22;37657;53.182;5.638;2023-04-24T13:49:24;10.20;99.90
51567;DHT22;37657;53.182;5.638;2023-04-24T13:51:50;10.20;99.90
51567;DHT22;37657;53.182;5.638;2023-04-24T13:54:16;10.20;99.90
51567;DHT22;37657;53.182;5.638;2023-04-24T13:56:42;10.20;99.90
51567;DHT22;37657;53.182;5.638;2023-04-24T13:59:07;10.20;99.90
51567;DHT22;37657;53.182;5.638;2023-04-24T14:01:34;10.20;99.90
51567;DHT22;37657;53.182;5.638;2023-04-24T14:03:59;10.20;99.90
51567;DHT22;37657;53.182;5.638;2023-04-24T14:06:25;10.30;99.90
51567;DHT22;37657;53.182;5.638;2023-04-24T14:08:51;10.30;99.90
51567;DHT22;37657;53.182;5.638;2023-04-24T14:11:18;10.20;99.90
51567;DHT22;37657;53.182;5.638;2023-04-24T14:13:43;10.20;99.90
51567;DHT22;37657;53.182;5.638;2023-04-24T14:16:10;10.20;99.90
51567;DHT22;37657;53.182;5.638;2023-04-24T14:18:36;10.10;99.90
51567;DHT22;37657;53.182;5.638;2023-04-24T14:21:03;10.00;99.90
51567;DHT22;37657;53.182;5.638;2023-04-24T14:23:29;10.10;99.90
51567;DHT22;37657;53.182;5.638;2023-04-24T14:25:55;10.10;99.90
51567;DHT22;37657;53.182;5.638;2023-04-24T14:28:21;10.00;99.90
51567;DHT22;37657;53.182;5.638;2023-04-24T14:30:47;10.00;99.90
51567;DHT22;37657;53.182;5.638;2023-04-24T14:33:13;10.00;99.90
51567;DHT22;37657;53.182;5.638;2023-04-24T14:35:42;10.00;99.90
51567;DHT22;37657;53.182;5.638;2023-04-24T14:38:08;10.10;99.90
51567;DHT22;37657;53.182;5.638;2023-04-24T14:40:36;10.10;99.90
51567;DHT22;37657;53.182;5.638;2023-04-24T14:43:01;10.00;99.90
51567;DHT22;37657;53.182;5.638;2023-04-24T14:45:27;9.90;99.90
51567;DHT22;37657;53.182;5.638;2023-04-24T14:47:53;9.90;99.90
51567;DHT22;37657;53.182;5.638;2023-04-24T14:50:20;9.90;99.90
51567;DHT22;37657;53.182;5.638;2023-04-24T14:52:46;9.90;99.90
51567;DHT22;37657;53.182;5.638;2023-04-24T14:55:11;9.90;99.90
51567;DHT22;37657;53.182;5.638;2023-04-24T14:57:37;10.10;99.90
51567;DHT22;37657;53.182;5.638;2023-04-24T15:00:04;10.00;99.90
51567;DHT22;37657;53.182;5.638;2023-04-24T15:02:32;9.90;99.90
51567;DHT22;37657;53.182;5.638;2023-04-24T15:04:58;9.80;99.90
51567;DHT22;37657;53.182;5.638;2023-04-24T15:07:24;9.70;99.90
51567;DHT22;37657;53.182;5.638;2023-04-24T15:09:49;9.80;99.90
51567;DHT22;37657;53.182;5.638;2023-04-24T15:12:15;9.90;99.90
51567;DHT22;37657;53.182;5.638;2023-04-24T15:14:41;9.90;99.90
51567;DHT22;37657;53.182;5.638;2023-04-24T15:17:06;10.00;99.90
51567;DHT22;37657;53.182;5.638;2023-04-24T15:19:32;10.00;99.90
51567;DHT22;37657;53.182;5.638;2023-04-24T15:21:57;10.00;99.90
51567;DHT22;37657;53.182;5.638;2023-04-24T15:24:23;9.90;99.90
51567;DHT22;37657;53.182;5.638;2023-04-24T15:26:49;9.70;99.90
51567;DHT22;37657;53.182;5.638;2023-04-24T15:29:15;9.50;99.90
51567;DHT22;37657;53.182;5.638;2023-04-24T15:31:40;9.50;99.90
51567;DHT22;37657;53.182;5.638;2023-04-24T15:34:06;9.60;99.90
51567;DHT22;37657;53.182;5.638;2023-04-24T15:36:32;9.70;99.90
51567;DHT22;37657;53.182;5.638;2023-04-24T15:38:58;9.60;99.90
51567;DHT22;37657;53.182;5.638;2023-04-24T15:41:23;9.60;99.90
51567;DHT22;37657;53.182;5.638;2023-04-24T15:43:49;9.70;99.90